AFL1845 LUKK-UUEE
Flight info
| Callsign | AFL1845 |
|---|---|
| Flight time | N/A |
| Altitude | 36000 |
| Route | NUNTA DCT UDSIG DCT KARIL DCT KENIN/N0453F370 DCT GAWOR T344 BIGLU L999 LAPKI N869 DURTI M864 DIPOP DIPOP3F |
| Aircraft | A320/M-SDE3FGHIRWY/LB1 |
Departure
| Time | 2026-04-28 16:39 |
|---|---|
| Airport | Chişinău International Airport (LUKK) |
Arrival
| Time | N/A |
|---|---|
| Airport | Sheremetyevo International Airport (UUEE) |
| Time | Latitude | Longitude | Altitude | Speed | Heading |
|---|---|---|---|---|---|
| 2026-04-28 16:23 | 46.93369 | 28.93673 | 408 ft | 0 kts | 7° |
| 2026-04-28 16:31 | 46.93389 | 28.93673 | 408 ft | 3 kts | 351° |
| 2026-04-28 16:32 | 46.93405 | 28.93652 | 406 ft | 5 kts | 300° |
| 2026-04-28 16:32 | 46.93416 | 28.93557 | 408 ft | 7 kts | 277° |
| 2026-04-28 16:32 | 46.93413 | 28.93502 | 404 ft | 4 kts | 239° |
| 2026-04-28 16:33 | 46.93380 | 28.93484 | 408 ft | 7 kts | 189° |
| 2026-04-28 16:33 | 46.93341 | 28.93476 | 408 ft | 10 kts | 187° |
| 2026-04-28 16:33 | 46.93250 | 28.93461 | 408 ft | 9 kts | 186° |
| 2026-04-28 16:33 | 46.93191 | 28.93450 | 410 ft | 9 kts | 187° |
| 2026-04-28 16:34 | 46.93147 | 28.93495 | 411 ft | 9 kts | 105° |
| 2026-04-28 16:34 | 46.93137 | 28.93606 | 407 ft | 12 kts | 96° |
| 2026-04-28 16:34 | 46.93127 | 28.93733 | 408 ft | 13 kts | 97° |
| 2026-04-28 16:34 | 46.93116 | 28.93860 | 407 ft | 12 kts | 97° |
| 2026-04-28 16:35 | 46.93107 | 28.93968 | 407 ft | 10 kts | 97° |
| 2026-04-28 16:35 | 46.93100 | 28.94061 | 407 ft | 9 kts | 97° |
| 2026-04-28 16:35 | 46.93089 | 28.94185 | 405 ft | 15 kts | 97° |
| 2026-04-28 16:35 | 46.93076 | 28.94336 | 406 ft | 14 kts | 97° |
| 2026-04-28 16:36 | 46.93065 | 28.94465 | 407 ft | 12 kts | 97° |
| 2026-04-28 16:36 | 46.93053 | 28.94611 | 405 ft | 17 kts | 97° |
| 2026-04-28 16:36 | 46.93039 | 28.94776 | 407 ft | 16 kts | 97° |
| 2026-04-28 16:36 | 46.93025 | 28.94927 | 410 ft | 14 kts | 97° |
| 2026-04-28 16:37 | 46.93015 | 28.95049 | 410 ft | 8 kts | 98° |
| 2026-04-28 16:37 | 46.92968 | 28.95111 | 410 ft | 10 kts | 173° |
| 2026-04-28 16:37 | 46.92898 | 28.95116 | 409 ft | 9 kts | 179° |
| 2026-04-28 16:38 | 46.92821 | 28.95047 | 409 ft | 6 kts | 266° |
| 2026-04-28 16:38 | 46.92816 | 28.94888 | 408 ft | 43 kts | 268° |
| 2026-04-28 16:38 | 46.92800 | 28.94092 | 409 ft | 109 kts | 268° |
| 2026-04-28 16:38 | 46.92770 | 28.92717 | 431 ft | 157 kts | 267° |
| 2026-04-28 16:39 | 46.92715 | 28.91109 | 991 ft | 159 kts | 267° |
| 2026-04-28 16:39 | 46.92681 | 28.89493 | 1581 ft | 159 kts | 268° |
| 2026-04-28 16:39 | 46.92652 | 28.87843 | 2035 ft | 171 kts | 268° |
| 2026-04-28 16:39 | 46.92619 | 28.85988 | 2346 ft | 193 kts | 268° |
| 2026-04-28 16:40 | 46.92581 | 28.83908 | 2666 ft | 216 kts | 268° |
| 2026-04-28 16:40 | 46.92536 | 28.81600 | 3018 ft | 240 kts | 268° |
| 2026-04-28 16:40 | 46.92486 | 28.79033 | 3484 ft | 259 kts | 268° |
| 2026-04-28 16:40 | 46.92432 | 28.76371 | 4262 ft | 265 kts | 268° |
| 2026-04-28 16:41 | 46.92377 | 28.73662 | 5103 ft | 268 kts | 268° |
| 2026-04-28 16:41 | 46.92406 | 28.70919 | 5919 ft | 272 kts | 277° |
| 2026-04-28 16:41 | 46.92807 | 28.68193 | 6736 ft | 276 kts | 285° |
| 2026-04-28 16:41 | 46.93399 | 28.65506 | 7543 ft | 279 kts | 289° |
| 2026-04-28 16:42 | 46.94056 | 28.62820 | 8332 ft | 283 kts | 289° |
| 2026-04-28 16:42 | 46.94724 | 28.60095 | 9097 ft | 286 kts | 289° |
| 2026-04-28 16:42 | 46.95378 | 28.57330 | 9859 ft | 289 kts | 288° |
| 2026-04-28 16:42 | 46.96021 | 28.54493 | 10396 ft | 302 kts | 287° |
| 2026-04-28 16:43 | 46.96686 | 28.51455 | 10599 ft | 326 kts | 287° |
| 2026-04-28 16:43 | 46.97390 | 28.48181 | 10771 ft | 348 kts | 287° |
| 2026-04-28 16:43 | 46.98121 | 28.44740 | 11226 ft | 358 kts | 287° |
| 2026-04-28 16:43 | 46.98862 | 28.41231 | 11859 ft | 363 kts | 287° |
| 2026-04-28 16:44 | 46.99609 | 28.37683 | 12513 ft | 366 kts | 287° |
| 2026-04-28 16:44 | 47.00364 | 28.34097 | 13162 ft | 370 kts | 287° |
| 2026-04-28 16:44 | 47.01125 | 28.30486 | 13794 ft | 373 kts | 287° |
| 2026-04-28 16:44 | 47.01893 | 28.26830 | 14405 ft | 377 kts | 287° |
| 2026-04-28 16:45 | 47.02667 | 28.23144 | 14996 ft | 380 kts | 287° |
| 2026-04-28 16:45 | 47.03448 | 28.19426 | 15577 ft | 383 kts | 287° |
| 2026-04-28 16:45 | 47.04236 | 28.15674 | 16137 ft | 387 kts | 287° |
| 2026-04-28 16:45 | 47.05027 | 28.11893 | 16680 ft | 390 kts | 287° |
| 2026-04-28 16:46 | 47.05822 | 28.08077 | 17209 ft | 393 kts | 287° |
| 2026-04-28 16:46 | 47.06622 | 28.04231 | 17727 ft | 396 kts | 287° |
| 2026-04-28 16:46 | 47.07424 | 28.00350 | 18224 ft | 399 kts | 286° |
| 2026-04-28 16:46 | 47.08229 | 27.96443 | 18698 ft | 402 kts | 286° |
| 2026-04-28 16:47 | 47.09043 | 27.92501 | 19186 ft | 405 kts | 286° |
| 2026-04-28 16:47 | 47.09811 | 27.88520 | 19646 ft | 408 kts | 282° |
| 2026-04-28 16:47 | 47.10181 | 27.84387 | 20092 ft | 410 kts | 272° |
| 2026-04-28 16:47 | 47.10076 | 27.80195 | 20531 ft | 412 kts | 264° |
| 2026-04-28 16:48 | 47.09803 | 27.75996 | 20963 ft | 415 kts | 264° |
| 2026-04-28 16:48 | 47.09531 | 27.71768 | 21386 ft | 418 kts | 264° |
| 2026-04-28 16:48 | 47.09259 | 27.67510 | 21799 ft | 420 kts | 264° |
| 2026-04-28 16:48 | 47.08987 | 27.63226 | 22203 ft | 423 kts | 264° |
| 2026-04-28 16:49 | 47.08715 | 27.58918 | 22595 ft | 425 kts | 264° |
| 2026-04-28 16:49 | 47.08440 | 27.54588 | 22987 ft | 428 kts | 264° |
| 2026-04-28 16:49 | 47.08160 | 27.50226 | 23360 ft | 430 kts | 264° |
| 2026-04-28 16:49 | 47.07872 | 27.45845 | 23722 ft | 433 kts | 264° |
| 2026-04-28 16:50 | 47.07581 | 27.41441 | 24073 ft | 435 kts | 264° |
| 2026-04-28 16:50 | 47.07286 | 27.37016 | 24418 ft | 437 kts | 264° |
| 2026-04-28 16:50 | 47.06990 | 27.32562 | 24770 ft | 440 kts | 264° |
| 2026-04-28 16:50 | 47.06693 | 27.28091 | 25087 ft | 442 kts | 264° |
| 2026-04-28 16:51 | 47.06392 | 27.23592 | 25413 ft | 444 kts | 264° |
| 2026-04-28 16:51 | 47.06086 | 27.19078 | 25735 ft | 446 kts | 264° |
| 2026-04-28 16:51 | 47.05773 | 27.14543 | 26049 ft | 448 kts | 264° |
| 2026-04-28 16:51 | 47.05459 | 27.09982 | 26354 ft | 450 kts | 264° |
| 2026-04-28 16:52 | 47.05251 | 27.06947 | 26550 ft | 452 kts | 264° |
| 2026-04-28 16:52 | 47.04935 | 27.02361 | 26838 ft | 454 kts | 264° |
| 2026-04-28 16:52 | 47.04615 | 26.97741 | 27117 ft | 456 kts | 264° |
| 2026-04-28 16:52 | 47.04292 | 26.93109 | 27385 ft | 458 kts | 264° |
| 2026-04-28 16:53 | 47.03965 | 26.88463 | 27654 ft | 460 kts | 264° |
| 2026-04-28 16:53 | 47.03632 | 26.83778 | 27906 ft | 461 kts | 264° |
| 2026-04-28 16:53 | 47.03295 | 26.79078 | 28162 ft | 463 kts | 264° |
| 2026-04-28 16:53 | 47.02959 | 26.74417 | 28405 ft | 465 kts | 264° |
| 2026-04-28 16:54 | 47.02617 | 26.69692 | 28653 ft | 467 kts | 264° |
| 2026-04-28 16:54 | 47.02273 | 26.64959 | 28960 ft | 466 kts | 264° |
| 2026-04-28 16:54 | 47.01929 | 26.60207 | 29313 ft | 465 kts | 264° |
| 2026-04-28 16:54 | 47.01587 | 26.55490 | 29651 ft | 465 kts | 264° |
| 2026-04-28 16:55 | 47.01244 | 26.50837 | 29978 ft | 464 kts | 263° |
| 2026-04-28 16:55 | 47.00893 | 26.46125 | 30307 ft | 463 kts | 263° |
| 2026-04-28 16:55 | 47.00541 | 26.41422 | 30624 ft | 463 kts | 263° |
| 2026-04-28 16:55 | 47.00186 | 26.36724 | 30945 ft | 462 kts | 263° |
| 2026-04-28 16:56 | 46.99833 | 26.32034 | 31260 ft | 461 kts | 263° |
| 2026-04-28 16:56 | 46.99484 | 26.27404 | 31566 ft | 461 kts | 263° |
| 2026-04-28 16:56 | 46.99129 | 26.22737 | 31872 ft | 460 kts | 263° |
| 2026-04-28 16:56 | 46.98771 | 26.18078 | 32176 ft | 460 kts | 263° |
| 2026-04-28 16:57 | 46.98408 | 26.13403 | 32485 ft | 459 kts | 263° |
| 2026-04-28 16:57 | 46.98182 | 26.08798 | 32759 ft | 458 kts | 270° |
| 2026-04-28 16:57 | 46.98437 | 26.04134 | 33034 ft | 458 kts | 279° |
| 2026-04-28 16:57 | 46.99194 | 25.99597 | 33311 ft | 458 kts | 288° |
| 2026-04-28 16:58 | 47.00274 | 25.95192 | 33578 ft | 458 kts | 289° |
| 2026-04-28 16:58 | 47.01337 | 25.90862 | 33849 ft | 457 kts | 289° |
| 2026-04-28 16:58 | 47.02408 | 25.86464 | 34123 ft | 457 kts | 289° |
| 2026-04-28 16:58 | 47.03476 | 25.82068 | 34395 ft | 456 kts | 289° |
| 2026-04-28 16:59 | 47.04544 | 25.77664 | 34665 ft | 456 kts | 289° |
| 2026-04-28 16:59 | 47.05593 | 25.73329 | 34920 ft | 455 kts | 289° |
| 2026-04-28 16:59 | 47.06652 | 25.68940 | 35176 ft | 454 kts | 289° |
| 2026-04-28 16:59 | 47.07709 | 25.64551 | 35416 ft | 454 kts | 289° |
| 2026-04-28 17:00 | 47.08745 | 25.60235 | 35646 ft | 453 kts | 289° |
| 2026-04-28 17:00 | 47.09795 | 25.55860 | 35857 ft | 453 kts | 289° |
| 2026-04-28 17:00 | 47.10847 | 25.51483 | 35985 ft | 454 kts | 289° |
| 2026-04-28 17:01 | 47.12944 | 25.42741 | 36009 ft | 454 kts | 289° |
| 2026-04-28 17:01 | 47.15013 | 25.34013 | 36010 ft | 454 kts | 289° |
| 2026-04-28 17:02 | 47.17093 | 25.25224 | 36009 ft | 454 kts | 289° |
| 2026-04-28 17:02 | 47.19315 | 25.15834 | 36009 ft | 454 kts | 289° |
| 2026-04-28 17:03 | 47.22261 | 25.03284 | 36005 ft | 454 kts | 289° |
| 2026-04-28 17:03 | 47.24318 | 24.94481 | 36002 ft | 454 kts | 289° |
| 2026-04-28 17:04 | 47.27381 | 24.81355 | 36003 ft | 454 kts | 288° |
| 2026-04-28 17:05 | 47.30431 | 24.68153 | 35999 ft | 454 kts | 288° |
| 2026-04-28 17:06 | 47.33472 | 24.54929 | 36000 ft | 453 kts | 288° |
| 2026-04-28 17:06 | 47.36488 | 24.41733 | 35996 ft | 453 kts | 288° |
| 2026-04-28 17:07 | 47.38492 | 24.32884 | 35999 ft | 453 kts | 288° |
| 2026-04-28 17:07 | 47.40490 | 24.24049 | 35993 ft | 453 kts | 288° |
| 2026-04-28 17:08 | 47.42483 | 24.15223 | 35996 ft | 453 kts | 288° |
| 2026-04-28 17:08 | 47.44476 | 24.06371 | 35992 ft | 453 kts | 288° |
| 2026-04-28 17:09 | 47.46437 | 23.97560 | 35995 ft | 453 kts | 288° |
| 2026-04-28 17:09 | 47.48412 | 23.88669 | 36000 ft | 453 kts | 288° |
| 2026-04-28 17:10 | 47.50366 | 23.79855 | 35994 ft | 453 kts | 288° |
| 2026-04-28 17:10 | 47.52325 | 23.70971 | 35993 ft | 453 kts | 288° |
| 2026-04-28 17:11 | 47.54270 | 23.62100 | 35994 ft | 453 kts | 288° |
| 2026-04-28 17:11 | 47.55098 | 23.58322 | 35997 ft | 453 kts | 288° |
| 2026-04-28 17:12 | 47.56998 | 23.49641 | 36004 ft | 427 kts | 288° |
| 2026-04-28 17:12 | 47.57898 | 23.45519 | 36006 ft | 412 kts | 287° |
| 2026-04-28 17:12 | 47.58752 | 23.41598 | 36007 ft | 397 kts | 287° |
| 2026-04-28 17:13 | 47.59586 | 23.37767 | 36008 ft | 382 kts | 287° |
| 2026-04-28 17:13 | 47.60385 | 23.34070 | 36004 ft | 368 kts | 287° |
| 2026-04-28 17:13 | 47.61149 | 23.30525 | 36003 ft | 353 kts | 287° |
| 2026-04-28 17:13 | 47.61871 | 23.27169 | 36001 ft | 338 kts | 288° |
| 2026-04-28 17:14 | 47.62576 | 23.23910 | 35834 ft | 328 kts | 288° |
| 2026-04-28 17:14 | 47.63265 | 23.20662 | 35340 ft | 329 kts | 286° |
| 2026-04-28 17:14 | 47.63876 | 23.17361 | 35015 ft | 333 kts | 284° |
| 2026-04-28 17:14 | 47.64380 | 23.14115 | 35500 ft | 320 kts | 281° |
| 2026-04-28 17:15 | 47.65172 | 23.07541 | 35804 ft | 319 kts | 276° |
| 2026-04-28 17:15 | 47.65744 | 23.00980 | 35892 ft | 326 kts | 275° |
| 2026-04-28 17:16 | 47.65717 | 22.94155 | 35839 ft | 336 kts | 267° |
| 2026-04-28 17:16 | 47.65583 | 22.86986 | 35305 ft | 366 kts | 269° |
| 2026-04-28 17:17 | 47.65559 | 22.83126 | 34803 ft | 387 kts | 269° |
| 2026-04-28 17:17 | 47.65714 | 22.79087 | 34789 ft | 394 kts | 284° |
| 2026-04-28 17:17 | 47.66802 | 22.75404 | 34797 ft | 399 kts | 304° |
| 2026-04-28 17:17 | 47.68442 | 22.72026 | 34796 ft | 406 kts | 306° |
| 2026-04-28 17:18 | 47.71835 | 22.65105 | 34800 ft | 420 kts | 306° |
| 2026-04-28 17:18 | 47.75334 | 22.57966 | 34801 ft | 433 kts | 306° |
| 2026-04-28 17:19 | 47.78498 | 22.50213 | 34799 ft | 445 kts | 300° |
| 2026-04-28 17:19 | 47.82153 | 22.42695 | 34793 ft | 455 kts | 314° |
| 2026-04-28 17:20 | 47.84557 | 22.39592 | 34799 ft | 457 kts | 325° |
| 2026-04-28 17:20 | 47.86340 | 22.37900 | 34796 ft | 458 kts | 328° |
| 2026-04-28 17:20 | 47.92719 | 22.32211 | 34798 ft | 458 kts | 329° |
| 2026-04-28 17:21 | 47.98176 | 22.27354 | 34798 ft | 459 kts | 328° |
| 2026-04-28 17:22 | 48.06375 | 22.19940 | 34794 ft | 459 kts | 328° |
| 2026-04-28 17:22 | 48.11083 | 22.15647 | 34796 ft | 459 kts | 328° |